Albany, New York
Traffic Map
Current Weather Conditions
Albany, New York
Scattered Clouds
Scattered Clouds
76°
Feels Like: 76°
Wind Chill: 76° Ceiling: Unl
Heat Index: 76° Visibility: 10mi
Dew Point: 51° Wind: 12mph
Humidity: 42% Direction: 300° (WNW)
Pressure: 29.89in Gusts: 16mph
Raw Report DataKALB 022051Z 30010G14KT 10SM FEW055 SCT260 24/11 A2989 RMK AO2 SLP121 SCT V BKN T02440106 58003
Traffic Incident Summary
Active as of:
Severity:
Category:
InformationThere was an issue retrieving the traffic information for this location. Please try a different location or try again shortly.
Advertisements
Track Severe Weather on mobile